Time;durP1;ratioP1;P1;durP2;ratioP2;P2;SDS_P1;SDS_P2;PMS_P1;PMS_P2;Temp;Humidity;BMP_temperature;BMP_pressure;BME280_temperature;BME280_humidity;BME280_pressure;Samples;Min_cycle;Max_cycle;Signal;HPM_P1;HPM_P2
2023/08/04 00:00:18;;;;;;;19.52;18.20;;;;;;;19.38;64.61;99389.00;4994623;28;98809;-77
2023/08/04 00:02:44;;;;;;;18.38;17.08;;;;;;;19.44;64.10;99382.31;4994540;28;97184;-78
2023/08/04 00:05:10;;;;;;;19.40;17.90;;;;;;;19.64;63.54;99391.25;4994969;28;97187;-77
2023/08/04 00:07:36;;;;;;;19.17;17.70;;;;;;;19.48;64.03;99398.84;4994935;28;97377;-77
2023/08/04 00:10:03;;;;;;;18.95;17.65;;;;;;;19.27;64.66;99401.53;4994389;28;98664;-78
2023/08/04 00:12:29;;;;;;;19.17;17.70;;;;;;;19.23;64.63;99409.78;4994707;28;98338;-78
2023/08/04 00:14:54;;;;;;;19.08;17.65;;;;;;;19.11;64.76;99408.16;4994081;28;97131;-77
2023/08/04 00:17:20;;;;;;;19.23;17.80;;;;;;;19.05;64.87;99403.31;4995273;28;96965;-78
2023/08/04 00:19:46;;;;;;;18.23;16.95;;;;;;;19.11;64.31;99393.97;4993234;28;98106;-78
2023/08/04 00:22:11;;;;;;;18.90;17.58;;;;;;;19.09;64.31;99390.63;4994166;28;98267;-77
2023/08/04 00:24:37;;;;;;;18.48;17.27;;;;;;;19.00;64.27;99395.75;4994169;28;96589;-78
2023/08/04 00:27:03;;;;;;;18.55;17.15;;;;;;;19.00;64.36;99389.59;4994837;28;97576;-78
2023/08/04 00:29:29;;;;;;;19.02;17.52;;;;;;;18.96;64.25;99396.13;4990338;28;98883;-77
2023/08/04 00:31:54;;;;;;;19.55;17.95;;;;;;;18.94;64.39;99406.06;4993347;28;97333;-78
2023/08/04 00:34:20;;;;;;;19.33;17.80;;;;;;;18.95;64.32;99413.06;4988939;28;96763;-78
2023/08/04 00:36:47;;;;;;;17.90;16.75;;;;;;;18.96;63.91;99404.09;4994561;28;96863;-78
2023/08/04 00:39:16;;;;;;;18.88;17.13;;;;;;;18.94;63.97;99398.09;4981899;28;98983;-78
2023/08/04 00:41:42;;;;;;;19.27;17.88;;;;;;;18.91;63.97;99393.84;4983833;28;97360;-78
2023/08/04 00:44:08;;;;;;;18.88;17.58;;;;;;;18.94;63.71;99401.56;4992029;28;96556;-77
2023/08/04 00:46:34;;;;;;;18.50;17.25;;;;;;;18.94;63.56;99406.91;4994219;28;96824;-77
2023/08/04 00:49:00;;;;;;;19.23;17.77;;;;;;;18.99;63.27;99403.84;4992830;28;97599;-77
2023/08/04 00:51:26;;;;;;;17.90;16.70;;;;;;;19.04;63.14;99408.78;4992197;28;98568;-78
2023/08/04 00:53:51;;;;;;;18.60;17.23;;;;;;;19.11;62.85;99404.63;4972608;28;96830;-77
2023/08/04 00:56:18;;;;;;;19.08;17.63;;;;;;;19.14;62.82;99405.22;4994134;28;96783;-77
2023/08/04 00:58:44;;;;;;;18.25;16.77;;;;;;;19.07;63.07;99404.03;4993910;28;98770;-77
2023/08/04 01:01:09;;;;;;;18.50;17.17;;;;;;;19.09;63.14;99410.09;4993706;28;98395;-77
2023/08/04 01:03:37;;;;;;;18.63;17.33;;;;;;;19.03;63.03;99415.09;4981953;28;98205;-77
2023/08/04 01:06:23;;;;;;;18.70;17.25;;;;;;;18.96;63.20;99425.38;4992639;28;97877;-77
2023/08/04 01:09:07;;;;;;;18.20;17.10;;;;;;;18.95;63.27;99424.53;4985332;28;97815;-77
2023/08/04 01:11:38;;;;;;;18.52;17.33;;;;;;;18.96;63.02;99418.22;4988328;28;98749;-77
2023/08/04 01:14:05;;;;;;;18.05;16.85;;;;;;;18.95;63.06;99416.56;4989333;28;96847;-77
2023/08/04 01:16:31;;;;;;;19.85;18.45;;;;;;;19.02;62.88;99416.03;4987241;28;97406;-77
2023/08/04 01:18:59;;;;;;;18.25;16.92;;;;;;;19.08;62.49;99421.72;4993722;28;97876;-77
2023/08/04 01:21:25;;;;;;;19.05;17.52;;;;;;;19.16;62.31;99431.69;4989308;28;98587;-77
2023/08/04 01:23:50;;;;;;;19.35;17.52;;;;;;;19.29;61.83;99439.50;4999018;28;97296;-77
2023/08/04 01:26:18;;;;;;;18.65;17.17;;;;;;;19.35;61.58;99439.81;4972896;28;96796;-78
2023/08/04 01:28:45;;;;;;;18.98;17.67;;;;;;;19.32;61.46;99442.75;4985549;28;98527;-77
2023/08/04 01:31:11;;;;;;;18.20;17.10;;;;;;;19.35;61.14;99447.81;4987326;28;97721;-77
2023/08/04 01:33:36;;;;;;;18.35;17.15;;;;;;;19.30;61.07;99450.00;4983621;28;96787;-77
2023/08/04 01:36:02;;;;;;;17.98;16.77;;;;;;;19.38;60.84;99452.03;4992161;28;97054;-77
2023/08/04 01:38:28;;;;;;;19.55;18.10;;;;;;;19.28;60.59;99456.41;4992555;28;98901;-78
2023/08/04 01:40:53;;;;;;;18.35;17.05;;;;;;;19.19;60.66;99450.06;4990943;28;97661;-77
2023/08/04 01:43:20;;;;;;;18.90;17.05;;;;;;;19.20;60.90;99457.91;4992318;28;97168;-77
2023/08/04 01:45:45;;;;;;;17.45;16.20;;;;;;;19.13;60.95;99447.91;4991982;28;97270;-77
2023/08/04 01:48:11;;;;;;;18.40;17.15;;;;;;;19.20;60.69;99438.47;4992265;28;98701;-78
2023/08/04 01:50:38;;;;;;;18.88;17.60;;;;;;;19.30;60.38;99431.38;4989286;28;97195;-77
2023/08/04 01:53:04;;;;;;;18.70;17.15;;;;;;;19.32;60.36;99437.41;4982731;28;97166;-77
2023/08/04 01:55:29;;;;;;;18.77;17.23;;;;;;;19.35;60.14;99433.66;4993033;28;96818;-77
2023/08/04 01:57:55;;;;;;;17.80;16.60;;;;;;;19.47;60.07;99434.44;4991016;28;100376;-78
2023/08/04 02:00:20;;;;;;;18.73;16.95;;;;;;;19.53;59.86;99431.25;4992976;28;98271;-78
2023/08/04 02:02:46;;;;;;;19.05;17.75;;;;;;;19.56;59.67;99441.63;4993412;28;97036;-78
2023/08/04 02:05:11;;;;;;;18.50;17.20;;;;;;;19.59;59.55;99428.91;4988932;28;96694;-78
2023/08/04 02:07:37;;;;;;;18.08;16.63;;;;;;;19.64;59.44;99437.34;4984254;28;97928;-78
2023/08/04 02:10:03;;;;;;;18.08;16.45;;;;;;;19.63;59.51;99440.13;4991693;28;98912;-77
2023/08/04 02:12:28;;;;;;;19.20;17.52;;;;;;;19.65;59.39;99446.19;4991682;28;96894;-78
2023/08/04 02:14:54;;;;;;;18.67;17.00;;;;;;;19.66;59.16;99440.75;4989877;28;97190;-78
2023/08/04 02:17:20;;;;;;;18.08;16.88;;;;;;;19.70;58.91;99440.50;4992838;28;98742;-78
2023/08/04 02:19:45;;;;;;;18.23;17.02;;;;;;;19.74;58.77;99441.91;4989369;28;98428;-78
2023/08/04 02:22:11;;;;;;;18.33;16.98;;;;;;;19.75;58.79;99460.44;4990388;28;97084;-77
2023/08/04 02:24:37;;;;;;;18.50;17.10;;;;;;;19.77;58.58;99457.63;4992471;28;96966;-78
2023/08/04 02:27:02;;;;;;;18.42;16.83;;;;;;;19.79;58.40;99466.31;4992314;28;98871;-78
2023/08/04 02:29:28;;;;;;;18.35;17.15;;;;;;;19.78;58.32;99465.50;4991460;28;98416;-78
2023/08/04 02:31:53;;;;;;;17.38;15.88;;;;;;;19.81;57.99;99473.22;4992799;28;96661;-77
2023/08/04 02:34:19;;;;;;;17.70;16.40;;;;;;;19.81;57.71;99465.22;4992158;28;97203;-78
2023/08/04 02:36:44;;;;;;;18.98;17.58;;;;;;;19.83;57.56;99473.06;4982829;28;98872;-78
2023/08/04 02:39:10;;;;;;;17.85;16.75;;;;;;;19.86;57.57;99478.13;4982660;28;98320;-78
2023/08/04 02:41:35;;;;;;;18.80;17.60;;;;;;;19.87;57.42;99461.19;4991602;28;96895;-77
2023/08/04 02:44:03;;;;;;;18.00;16.90;;;;;;;19.88;57.34;99461.03;4990689;28;97087;-79
2023/08/04 02:46:29;;;;;;;18.60;17.30;;;;;;;19.89;57.44;99467.19;4991642;28;99099;-77
2023/08/04 02:48:55;;;;;;;18.02;16.77;;;;;;;19.94;57.36;99462.34;4992240;28;98155;-77
2023/08/04 02:51:20;;;;;;;17.73;16.63;;;;;;;19.93;57.54;99465.97;4985441;28;97561;-78
2023/08/04 02:53:47;;;;;;;19.13;17.70;;;;;;;19.95;57.54;99474.66;4989050;28;96909;-77
2023/08/04 02:56:14;;;;;;;18.65;17.38;;;;;;;19.96;57.52;99475.53;4990638;28;100510;-78
2023/08/04 02:58:42;;;;;;;18.90;17.70;;;;;;;19.98;57.47;99471.72;4991632;28;98627;-78
2023/08/04 03:01:07;;;;;;;19.27;17.75;;;;;;;19.97;57.57;99471.88;4984878;28;97775;-77
2023/08/04 03:03:33;;;;;;;17.88;16.75;;;;;;;19.88;57.05;99479.69;4992655;28;97671;-78
2023/08/04 03:06:00;;;;;;;18.42;17.23;;;;;;;19.82;57.39;99480.22;4991667;28;98451;-78
2023/08/04 03:08:26;;;;;;;18.95;17.70;;;;;;;19.59;57.84;99486.63;4991901;28;98832;-78
2023/08/04 03:10:52;;;;;;;18.92;17.50;;;;;;;19.39;58.64;99491.78;4991458;28;96872;-78
2023/08/04 03:13:17;;;;;;;19.98;18.08;;;;;;;19.32;59.03;99498.63;4988793;28;97465;-77
2023/08/04 03:15:43;;;;;;;18.95;17.65;;;;;;;19.27;59.42;99500.81;4991695;28;99007;-78
2023/08/04 03:18:08;;;;;;;19.23;17.73;;;;;;;19.43;58.97;99500.34;4991998;28;98514;-77
2023/08/04 03:20:39;;;;;;;18.48;17.25;;;;;;;19.51;58.91;99489.09;4986655;28;97006;-78
2023/08/04 03:23:05;;;;;;;18.48;17.17;;;;;;;19.60;58.72;99491.81;4998242;28;97303;-77
2023/08/04 03:25:32;;;;;;;19.13;17.83;;;;;;;19.65;58.63;99500.28;4991431;28;98830;-78
2023/08/04 03:27:57;;;;;;;18.05;16.92;;;;;;;19.68;58.73;99513.31;4978378;28;98339;-78
2023/08/04 03:30:23;;;;;;;18.30;17.10;;;;;;;19.71;58.80;99511.38;4991204;28;97371;-78
2023/08/04 03:32:48;;;;;;;18.88;17.42;;;;;;;19.71;58.67;99519.38;4991064;28;96657;-78
2023/08/04 03:35:14;;;;;;;18.65;17.35;;;;;;;19.71;58.76;99516.72;4990973;28;98951;-78
2023/08/04 03:37:39;;;;;;;18.52;17.23;;;;;;;19.76;58.82;99514.50;4991594;28;98384;-78
2023/08/04 03:40:07;;;;;;;20.33;18.55;;;;;;;19.77;59.17;99518.84;4991715;28;97020;-78
2023/08/04 03:42:33;;;;;;;18.65;17.42;;;;;;;19.76;59.37;99510.03;4990928;28;96606;-78
2023/08/04 03:44:58;;;;;;;19.00;17.25;;;;;;;19.77;59.57;99518.84;4991258;28;98663;-78
2023/08/04 03:47:24;;;;;;;17.75;16.65;;;;;;;19.73;59.79;99514.78;4991455;28;98677;-78
2023/08/04 03:49:49;;;;;;;17.58;16.48;;;;;;;19.67;60.02;99524.97;4988364;28;97168;-78
2023/08/04 03:52:15;;;;;;;19.05;17.20;;;;;;;19.68;59.81;99529.31;4992177;28;97250;-78
2023/08/04 03:54:40;;;;;;;18.40;17.08;;;;;;;19.68;59.79;99531.97;4986077;28;98553;-78
2023/08/04 03:57:06;;;;;;;18.52;17.33;;;;;;;19.67;60.03;99529.44;4991283;28;98338;-78
2023/08/04 03:59:31;;;;;;;17.40;16.23;;;;;;;19.69;59.91;99516.81;4990801;28;97155;-77
2023/08/04 04:01:57;;;;;;;19.38;17.98;;;;;;;19.72;60.06;99524.56;4991364;28;96866;-78
2023/08/04 04:04:22;;;;;;;19.80;18.23;;;;;;;19.76;59.81;99528.66;4991041;28;99057;-78
2023/08/04 04:06:48;;;;;;;18.40;17.02;;;;;;;19.79;59.80;99511.59;4991394;28;98565;-78
2023/08/04 04:09:14;;;;;;;18.45;17.02;;;;;;;19.81;59.92;99520.28;4991369;28;96819;-77
2023/08/04 04:11:40;;;;;;;18.83;17.38;;;;;;;19.66;59.87;99515.31;4994075;28;98218;-78
2023/08/04 04:14:06;;;;;;;18.45;17.20;;;;;;;19.58;59.59;99514.22;4985016;28;98652;-78
2023/08/04 04:16:31;;;;;;;18.77;17.27;;;;;;;19.47;59.75;99532.91;4991422;28;98234;-77
2023/08/04 04:18:57;;;;;;;18.50;17.25;;;;;;;19.54;59.75;99540.22;4994919;28;96919;-78
2023/08/04 04:21:22;;;;;;;17.73;16.67;;;;;;;19.64;59.33;99549.16;4989254;28;97272;-78
2023/08/04 04:23:48;;;;;;;19.10;17.70;;;;;;;19.58;59.40;99557.66;4994058;28;99373;-78
2023/08/04 04:26:14;;;;;;;18.73;17.52;;;;;;;19.56;60.12;99559.59;4986778;28;98238;-77
2023/08/04 04:28:40;;;;;;;19.30;17.98;;;;;;;19.59;60.09;99553.16;4994202;28;96697;-78
2023/08/04 04:31:05;;;;;;;19.52;18.13;;;;;;;19.67;60.08;99554.25;4993968;28;97292;-77
2023/08/04 04:33:31;;;;;;;18.60;17.02;;;;;;;19.73;60.36;99557.38;4994390;28;98829;-78
2023/08/04 04:35:56;;;;;;;19.25;17.73;;;;;;;19.76;60.27;99547.31;4993677;28;98410;-78
2023/08/04 04:38:28;;;;;;;18.85;17.05;;;;;;;19.73;60.24;99555.56;4994341;28;96683;-78
2023/08/04 04:40:57;;;;;;;19.52;18.17;;;;;;;19.81;59.70;99545.09;4980788;28;96865;-78
2023/08/04 04:43:23;;;;;;;19.63;18.23;;;;;;;19.68;59.84;99541.78;4993859;28;98941;-78
2023/08/04 04:45:49;;;;;;;19.70;18.10;;;;;;;19.68;59.62;99544.44;4992806;28;98618;-78
2023/08/04 04:48:15;;;;;;;18.40;17.10;;;;;;;19.84;59.34;99544.84;4994275;28;97091;-78
2023/08/04 04:50:41;;;;;;;18.77;17.58;;;;;;;19.94;59.01;99558.22;4993693;28;96829;-78
2023/08/04 04:53:06;;;;;;;18.00;16.90;;;;;;;19.85;58.87;99551.00;4994124;28;98942;-77
2023/08/04 04:55:31;;;;;;;18.08;16.67;;;;;;;19.67;59.38;99550.75;4988356;28;98446;-78
2023/08/04 04:57:57;;;;;;;19.10;17.73;;;;;;;19.65;58.99;99540.22;4993938;28;96661;-78
2023/08/04 05:00:23;;;;;;;19.70;18.17;;;;;;;19.79;58.80;99549.72;4994079;28;96774;-78
2023/08/04 05:02:48;;;;;;;18.00;16.58;;;;;;;19.82;58.83;99557.44;4985545;28;99001;-78
2023/08/04 05:05:15;;;;;;;19.38;18.17;;;;;;;19.78;59.20;99566.66;4992908;28;98369;-78
2023/08/04 05:07:40;;;;;;;18.02;16.90;;;;;;;19.68;59.48;99565.72;4994273;28;97358;-77
2023/08/04 05:10:06;;;;;;;19.05;17.77;;;;;;;19.73;59.50;99581.34;4993982;28;96927;-78
2023/08/04 05:12:31;;;;;;;18.15;16.95;;;;;;;19.68;59.67;99577.22;4993154;28;98552;-77
2023/08/04 05:14:57;;;;;;;18.63;17.38;;;;;;;19.52;60.25;99575.94;4990969;28;98349;-78
2023/08/04 05:17:22;;;;;;;18.27;16.83;;;;;;;19.35;60.89;99564.88;4993164;28;96786;-78
2023/08/04 05:19:48;;;;;;;18.50;16.83;;;;;;;19.22;61.45;99575.66;4990762;28;96829;-77
2023/08/04 05:22:13;;;;;;;17.80;16.70;;;;;;;19.32;61.36;99572.28;4991689;28;98614;-78
2023/08/04 05:24:39;;;;;;;18.48;17.27;;;;;;;19.38;61.04;99583.25;4989318;28;98268;-78
2023/08/04 05:27:05;;;;;;;18.92;17.48;;;;;;;19.57;60.46;99587.88;4990033;28;96860;-78
2023/08/04 05:29:30;;;;;;;18.50;16.75;;;;;;;19.75;60.19;99582.03;4993276;28;98317;-77
2023/08/04 05:31:56;;;;;;;18.60;17.30;;;;;;;19.79;59.59;99591.47;4993323;28;98910;-78
2023/08/04 05:34:21;;;;;;;18.77;17.02;;;;;;;19.78;59.11;99603.06;4990567;28;97278;-78
2023/08/04 05:36:47;;;;;;;18.10;17.00;;;;;;;19.72;59.30;99601.75;4993163;28;97141;-78
2023/08/04 05:39:12;;;;;;;17.90;16.83;;;;;;;19.84;58.89;99600.75;4989983;28;96787;-78
2023/08/04 05:41:38;;;;;;;17.95;16.55;;;;;;;19.81;59.22;99600.16;4982816;28;98659;-77
2023/08/04 05:44:03;;;;;;;19.45;18.10;;;;;;;19.99;58.98;99598.63;4993079;28;98486;-77
2023/08/04 05:46:29;;;;;;;18.20;17.00;;;;;;;20.05;59.00;99603.44;4993303;28;96784;-77
2023/08/04 05:48:54;;;;;;;18.15;16.95;;;;;;;20.06;59.16;99614.94;4993513;28;96824;-77
2023/08/04 05:51:20;;;;;;;18.33;16.70;;;;;;;20.08;59.12;99611.16;4992412;28;99019;-78
2023/08/04 05:53:45;;;;;;;18.13;16.75;;;;;;;20.22;58.81;99617.16;4993438;28;97574;-78
2023/08/04 05:56:11;;;;;;;19.52;18.08;;;;;;;20.10;59.30;99611.00;4992541;28;97417;-78
2023/08/04 05:58:36;;;;;;;18.42;17.30;;;;;;;20.34;58.32;99613.44;4992982;28;96770;-78
2023/08/04 06:01:02;;;;;;;18.38;17.27;;;;;;;20.29;58.39;99613.81;4983879;28;98992;-78
2023/08/04 06:03:28;;;;;;;18.83;16.95;;;;;;;20.52;58.17;99617.19;4992843;28;98281;-77
2023/08/04 06:05:54;;;;;;;19.17;17.48;;;;;;;20.76;57.42;99600.88;4982480;28;97116;-77
2023/08/04 06:08:19;;;;;;;17.42;16.35;;;;;;;20.96;56.92;99604.44;4992702;28;96771;-78
2023/08/04 06:10:45;;;;;;;16.90;15.80;;;;;;;21.05;56.41;99601.94;4982231;28;98896;-78
2023/08/04 06:13:10;;;;;;;18.73;17.42;;;;;;;21.09;55.65;99590.88;4987789;28;98976;-78
2023/08/04 06:15:36;;;;;;;18.55;17.35;;;;;;;21.42;54.91;99581.69;4990627;28;96613;-77
2023/08/04 06:18:01;;;;;;;18.90;17.05;;;;;;;21.86;53.72;99592.78;4989337;28;96800;-78
2023/08/04 06:20:27;;;;;;;18.20;17.00;;;;;;;22.34;52.92;99601.72;4986421;28;98905;-78
2023/08/04 06:22:53;;;;;;;18.27;16.80;;;;;;;22.84;52.02;99604.06;4980309;28;98334;-78
2023/08/04 06:25:18;;;;;;;18.33;17.02;;;;;;;23.21;51.17;99616.56;4981315;28;96734;-79
2023/08/04 06:27:44;;;;;;;18.65;17.08;;;;;;;23.80;49.68;99612.50;4982030;28;97520;-79
2023/08/04 06:30:10;;;;;;;22.50;17.85;;;;;;;23.38;50.32;99615.75;4980599;28;99030;-78
2023/08/04 06:32:35;;;;;;;18.75;17.45;;;;;;;23.14;50.80;99620.84;4987456;28;98203;-78
2023/08/04 06:35:01;;;;;;;19.13;17.45;;;;;;;22.88;51.11;99621.50;4985694;28;96877;-78
2023/08/04 06:37:26;;;;;;;17.83;16.70;;;;;;;22.94;51.02;99628.09;4979046;28;96888;-79
2023/08/04 06:39:52;;;;;;;18.02;16.80;;;;;;;22.87;51.09;99635.88;4974171;28;98684;-78
2023/08/04 06:42:18;;;;;;;18.70;17.30;;;;;;;22.74;51.22;99633.53;4980414;28;98422;-78
2023/08/04 06:44:45;;;;;;;19.38;17.80;;;;;;;22.74;51.21;99638.88;4981755;28;96893;-78
2023/08/04 06:47:11;;;;;;;19.90;18.30;;;;;;;22.93;51.14;99637.97;4992983;28;97022;-78
2023/08/04 06:49:36;;;;;;;19.20;17.60;;;;;;;23.05;51.01;99636.81;4987313;28;98572;-78
2023/08/04 06:52:02;;;;;;;18.20;17.10;;;;;;;22.77;51.25;99635.06;4989322;28;98531;-79
2023/08/04 06:54:28;;;;;;;19.67;17.92;;;;;;;22.99;50.83;99640.06;4990835;28;96684;-78
2023/08/04 06:56:54;;;;;;;18.85;17.60;;;;;;;23.07;50.47;99646.50;4983321;28;96889;-77
2023/08/04 06:59:19;;;;;;;18.80;17.50;;;;;;;23.17;50.05;99650.84;4987130;28;98675;-77
2023/08/04 07:01:45;;;;;;;18.15;16.83;;;;;;;23.10;49.36;99649.75;4981449;28;98708;-77
2023/08/04 07:04:10;;;;;;;18.05;16.95;;;;;;;23.36;49.00;99647.22;4983855;28;97191;-78
2023/08/04 07:06:36;;;;;;;19.67;18.35;;;;;;;30.31;36.97;99638.09;4991586;28;97222;-78
2023/08/04 07:09:02;;;;;;;18.90;17.80;;;;;;;34.51;31.10;99637.63;4975788;28;98612;-78
2023/08/04 07:11:28;;;;;;;18.67;17.33;;;;;;;36.78;27.83;99649.75;4983706;28;98160;-78
2023/08/04 07:13:53;;;;;;;20.30;18.67;;;;;;;37.74;25.46;99655.56;4980036;28;96701;-79
2023/08/04 07:16:19;;;;;;;18.65;17.30;;;;;;;39.55;24.25;99664.25;4986810;28;96774;-78
2023/08/04 07:18:44;;;;;;;19.10;17.90;;;;;;;40.87;22.39;99655.47;4979711;28;98559;-79
2023/08/04 07:21:11;;;;;;;18.77;17.55;;;;;;;41.79;21.93;99663.19;4981115;28;98463;-78
2023/08/04 07:23:38;;;;;;;18.05;16.95;;;;;;;42.67;20.99;99662.88;4984711;28;96769;-78
2023/08/04 07:26:04;;;;;;;18.00;16.80;;;;;;;43.16;20.48;99661.38;4985532;28;96804;-79
2023/08/04 07:28:34;;;;;;;18.42;17.30;;;;;;;43.84;19.34;99657.91;4991478;28;98675;-79
2023/08/04 07:31:06;;;;;;;17.88;16.88;;;;;;;44.22;18.78;99661.78;4986745;28;98773;-82
2023/08/04 07:33:32;;;;;;;19.75;18.50;;;;;;;44.68;18.85;99657.72;4982223;28;96756;-79
2023/08/04 07:35:58;;;;;;;18.77;17.67;;;;;;;45.28;18.00;99665.63;4976059;28;96958;-79
2023/08/04 07:38:25;;;;;;;18.73;17.52;;;;;;;45.48;17.94;99670.88;4983113;28;99013;-79
2023/08/04 07:40:50;;;;;;;18.15;16.95;;;;;;;46.26;17.55;99665.78;4981674;28;98271;-79
2023/08/04 07:43:16;;;;;;;18.42;17.33;;;;;;;46.97;17.28;99669.16;4981792;28;96608;-79
2023/08/04 07:45:42;;;;;;;18.70;17.60;;;;;;;47.47;16.65;99657.28;4982788;28;96768;-79
2023/08/04 07:48:08;;;;;;;18.55;17.35;;;;;;;47.48;16.20;99664.47;4983891;28;98572;-79
2023/08/04 07:50:38;;;;;;;18.65;17.33;;;;;;;47.07;16.63;99666.22;4983502;28;98542;-79
2023/08/04 07:53:03;;;;;;;18.80;17.40;;;;;;;48.14;15.99;99668.44;4984590;28;96899;-79
2023/08/04 07:55:30;;;;;;;18.15;17.05;;;;;;;48.72;15.25;99669.41;4982522;28;96809;-79
